Norman, Oklahoma
Current Conditions -  °F | °C
As of 7:35 PM on Friday 24 Oct 2014 (Local Time) from KOUN Reporting Station
Clear Clear  
Wind Chill: 72°   Ceiling: Unl
Heat Index: 72°   Visibility: 10mi
Dew Point: 63°   Wind: 6mph
Humidity: 73%   Direction: 150°SSE
Pressure: 30.05"   Gusts: NA
Location:  35.22°N, 97.45°W
Report Text: KOUN 250035Z AUTO 15005KT 10SM CLR 22/17 A3005 RMK AO2
Loading
Personal Weather Stations






























Interactive Weather Map
Tropical Storm Tracking
New forecast layout! Learn more

10-Day Weather Forecast

Advertisements
Track Severe Weather on mobile